sensor_id;sensor_type;location;lat;lon;timestamp;temperature;humidity
35700;DHT22;21818;51.078;12.108;2023-05-10T00:01:06;17.20;63.80
35700;DHT22;21818;51.078;12.108;2023-05-10T00:03:31;17.20;63.80
35700;DHT22;21818;51.078;12.108;2023-05-10T00:05:57;17.10;63.70
35700;DHT22;21818;51.078;12.108;2023-05-10T00:08:22;17.20;63.80
35700;DHT22;21818;51.078;12.108;2023-05-10T00:10:48;17.10;63.80
35700;DHT22;21818;51.078;12.108;2023-05-10T00:13:14;17.10;63.80
35700;DHT22;21818;51.078;12.108;2023-05-10T00:15:39;17.10;63.80
35700;DHT22;21818;51.078;12.108;2023-05-10T00:18:05;17.10;63.80
35700;DHT22;21818;51.078;12.108;2023-05-10T00:20:31;17.10;63.80
35700;DHT22;21818;51.078;12.108;2023-05-10T00:22:56;17.10;63.80
35700;DHT22;21818;51.078;12.108;2023-05-10T00:25:22;17.20;63.90
35700;DHT22;21818;51.078;12.108;2023-05-10T00:27:47;17.20;63.80
35700;DHT22;21818;51.078;12.108;2023-05-10T00:30:13;17.30;63.70
35700;DHT22;21818;51.078;12.108;2023-05-10T00:32:39;17.20;63.60
35700;DHT22;21818;51.078;12.108;2023-05-10T00:35:05;17.20;63.60
35700;DHT22;21818;51.078;12.108;2023-05-10T00:37:30;17.20;63.60
35700;DHT22;21818;51.078;12.108;2023-05-10T00:39:56;17.20;63.60
35700;DHT22;21818;51.078;12.108;2023-05-10T00:42:21;17.20;63.70
35700;DHT22;21818;51.078;12.108;2023-05-10T00:44:47;17.20;63.50
35700;DHT22;21818;51.078;12.108;2023-05-10T00:47:13;17.30;63.60
35700;DHT22;21818;51.078;12.108;2023-05-10T00:49:39;17.20;63.50
35700;DHT22;21818;51.078;12.108;2023-05-10T00:52:05;17.20;63.70
35700;DHT22;21818;51.078;12.108;2023-05-10T00:54:31;17.10;63.90
35700;DHT22;21818;51.078;12.108;2023-05-10T00:56:57;17.10;64.00
35700;DHT22;21818;51.078;12.108;2023-05-10T00:59:22;17.10;64.30
35700;DHT22;21818;51.078;12.108;2023-05-10T01:01:48;17.00;64.40
35700;DHT22;21818;51.078;12.108;2023-05-10T01:04:14;17.00;64.40
35700;DHT22;21818;51.078;12.108;2023-05-10T01:06:41;17.00;64.40
35700;DHT22;21818;51.078;12.108;2023-05-10T01:09:06;17.10;64.40
35700;DHT22;21818;51.078;12.108;2023-05-10T01:11:34;17.10;64.40
35700;DHT22;21818;51.078;12.108;2023-05-10T01:14:00;17.00;64.50
35700;DHT22;21818;51.078;12.108;2023-05-10T01:16:27;17.00;64.50
35700;DHT22;21818;51.078;12.108;2023-05-10T01:18:54;17.00;64.50
35700;DHT22;21818;51.078;12.108;2023-05-10T01:21:33;17.00;64.40
35700;DHT22;21818;51.078;12.108;2023-05-10T01:30:00;17.10;64.60
35700;DHT22;21818;51.078;12.108;2023-05-10T01:35:38;17.00;64.50
35700;DHT22;21818;51.078;12.108;2023-05-10T01:43:32;16.90;64.60
35700;DHT22;21818;51.078;12.108;2023-05-10T01:46:05;17.00;64.50
35700;DHT22;21818;51.078;12.108;2023-05-10T01:48:39;16.90;64.40
35700;DHT22;21818;51.078;12.108;2023-05-10T01:51:06;17.00;64.60
35700;DHT22;21818;51.078;12.108;2023-05-10T01:53:33;16.90;64.50
35700;DHT22;21818;51.078;12.108;2023-05-10T01:56:00;16.90;64.40
35700;DHT22;21818;51.078;12.108;2023-05-10T01:58:29;17.00;64.40
35700;DHT22;21818;51.078;12.108;2023-05-10T02:00:59;16.90;64.60
35700;DHT22;21818;51.078;12.108;2023-05-10T02:03:27;16.90;64.70
35700;DHT22;21818;51.078;12.108;2023-05-10T02:05:54;16.90;64.80
35700;DHT22;21818;51.078;12.108;2023-05-10T02:08:22;16.80;64.80
35700;DHT22;21818;51.078;12.108;2023-05-10T02:10:50;16.80;64.60
35700;DHT22;21818;51.078;12.108;2023-05-10T02:13:18;16.80;64.60
35700;DHT22;21818;51.078;12.108;2023-05-10T02:15:47;16.80;64.50
35700;DHT22;21818;51.078;12.108;2023-05-10T02:18:13;16.90;64.30
35700;DHT22;21818;51.078;12.108;2023-05-10T02:20:41;17.00;64.30
35700;DHT22;21818;51.078;12.108;2023-05-10T02:23:08;17.10;64.10
35700;DHT22;21818;51.078;12.108;2023-05-10T02:25:34;17.10;63.90
35700;DHT22;21818;51.078;12.108;2023-05-10T02:28:03;17.10;63.90
35700;DHT22;21818;51.078;12.108;2023-05-10T02:30:31;17.10;63.90
35700;DHT22;21818;51.078;12.108;2023-05-10T02:32:57;17.20;63.90
35700;DHT22;21818;51.078;12.108;2023-05-10T02:35:25;17.20;64.00
35700;DHT22;21818;51.078;12.108;2023-05-10T02:37:52;17.10;64.20
35700;DHT22;21818;51.078;12.108;2023-05-10T02:40:19;17.10;64.20
35700;DHT22;21818;51.078;12.108;2023-05-10T02:42:47;17.10;64.20
35700;DHT22;21818;51.078;12.108;2023-05-10T02:45:18;17.10;64.30
35700;DHT22;21818;51.078;12.108;2023-05-10T02:47:44;17.10;64.30
35700;DHT22;21818;51.078;12.108;2023-05-10T02:50:10;17.10;64.20
35700;DHT22;21818;51.078;12.108;2023-05-10T02:52:44;17.10;64.30
35700;DHT22;21818;51.078;12.108;2023-05-10T02:55:14;17.10;64.30
35700;DHT22;21818;51.078;12.108;2023-05-10T02:57:46;17.10;64.40
35700;DHT22;21818;51.078;12.108;2023-05-10T03:00:14;17.10;64.40
35700;DHT22;21818;51.078;12.108;2023-05-10T03:02:40;17.10;64.40
35700;DHT22;21818;51.078;12.108;2023-05-10T03:05:05;17.10;64.40
35700;DHT22;21818;51.078;12.108;2023-05-10T03:07:32;17.10;64.50
35700;DHT22;21818;51.078;12.108;2023-05-10T03:09:58;17.10;64.50
35700;DHT22;21818;51.078;12.108;2023-05-10T03:15:26;17.00;64.60
35700;DHT22;21818;51.078;12.108;2023-05-10T03:18:16;17.10;64.40
35700;DHT22;21818;51.078;12.108;2023-05-10T03:20:47;17.10;64.50
35700;DHT22;21818;51.078;12.108;2023-05-10T03:25:46;17.20;64.30
35700;DHT22;21818;51.078;12.108;2023-05-10T03:28:14;17.20;64.20
35700;DHT22;21818;51.078;12.108;2023-05-10T03:30:42;17.20;64.30
35700;DHT22;21818;51.078;12.108;2023-05-10T03:33:08;17.20;64.50
35700;DHT22;21818;51.078;12.108;2023-05-10T03:35:34;17.20;64.60
35700;DHT22;21818;51.078;12.108;2023-05-10T03:38:00;17.20;64.60
35700;DHT22;21818;51.078;12.108;2023-05-10T03:40:26;17.10;64.60
35700;DHT22;21818;51.078;12.108;2023-05-10T03:42:54;17.00;64.70
35700;DHT22;21818;51.078;12.108;2023-05-10T03:45:20;17.00;64.90
35700;DHT22;21818;51.078;12.108;2023-05-10T03:47:45;17.00;64.80
35700;DHT22;21818;51.078;12.108;2023-05-10T03:50:11;17.10;64.80
35700;DHT22;21818;51.078;12.108;2023-05-10T03:52:36;17.10;64.70
35700;DHT22;21818;51.078;12.108;2023-05-10T03:55:04;17.20;64.70
35700;DHT22;21818;51.078;12.108;2023-05-10T03:57:37;17.20;64.70
35700;DHT22;21818;51.078;12.108;2023-05-10T04:00:04;17.30;64.70
35700;DHT22;21818;51.078;12.108;2023-05-10T04:02:29;17.30;64.70
35700;DHT22;21818;51.078;12.108;2023-05-10T04:04:56;17.30;64.80
35700;DHT22;21818;51.078;12.108;2023-05-10T04:07:21;17.30;64.80
35700;DHT22;21818;51.078;12.108;2023-05-10T04:09:47;17.40;64.90
35700;DHT22;21818;51.078;12.108;2023-05-10T04:12:13;17.40;65.00
35700;DHT22;21818;51.078;12.108;2023-05-10T04:14:38;17.40;65.30
35700;DHT22;21818;51.078;12.108;2023-05-10T04:17:04;17.30;65.40
35700;DHT22;21818;51.078;12.108;2023-05-10T04:19:32;17.30;65.60
35700;DHT22;21818;51.078;12.108;2023-05-10T04:21:58;17.30;65.80
35700;DHT22;21818;51.078;12.108;2023-05-10T04:24:24;17.30;66.10
35700;DHT22;21818;51.078;12.108;2023-05-10T04:26:50;17.30;66.10
35700;DHT22;21818;51.078;12.108;2023-05-10T04:29:16;17.30;66.10
35700;DHT22;21818;51.078;12.108;2023-05-10T04:31:41;17.30;66.10
35700;DHT22;21818;51.078;12.108;2023-05-10T04:34:07;17.40;66.20
35700;DHT22;21818;51.078;12.108;2023-05-10T04:36:32;17.40;66.20
35700;DHT22;21818;51.078;12.108;2023-05-10T04:39:00;17.40;66.10
35700;DHT22;21818;51.078;12.108;2023-05-10T04:41:26;17.40;66.20
35700;DHT22;21818;51.078;12.108;2023-05-10T04:43:51;17.40;66.20
35700;DHT22;21818;51.078;12.108;2023-05-10T04:46:17;17.50;66.10
35700;DHT22;21818;51.078;12.108;2023-05-10T04:48:42;17.50;66.20
35700;DHT22;21818;51.078;12.108;2023-05-10T04:51:08;17.50;66.20
35700;DHT22;21818;51.078;12.108;2023-05-10T04:53:34;17.50;66.10
35700;DHT22;21818;51.078;12.108;2023-05-10T04:55:59;17.50;66.10
35700;DHT22;21818;51.078;12.108;2023-05-10T04:58:25;17.60;66.10
35700;DHT22;21818;51.078;12.108;2023-05-10T05:00:51;17.60;66.20
35700;DHT22;21818;51.078;12.108;2023-05-10T05:03:17;17.60;66.40
35700;DHT22;21818;51.078;12.108;2023-05-10T05:05:43;17.60;66.30
35700;DHT22;21818;51.078;12.108;2023-05-10T05:08:09;17.70;66.30
35700;DHT22;21818;51.078;12.108;2023-05-10T05:10:34;17.70;66.20
35700;DHT22;21818;51.078;12.108;2023-05-10T05:13:00;17.70;66.10
35700;DHT22;21818;51.078;12.108;2023-05-10T05:15:26;17.80;66.10
35700;DHT22;21818;51.078;12.108;2023-05-10T05:17:51;17.90;66.00
35700;DHT22;21818;51.078;12.108;2023-05-10T05:20:17;17.90;65.80
35700;DHT22;21818;51.078;12.108;2023-05-10T05:22:44;18.00;65.80
35700;DHT22;21818;51.078;12.108;2023-05-10T05:25:09;18.10;65.70
35700;DHT22;21818;51.078;12.108;2023-05-10T05:27:36;18.20;65.80
35700;DHT22;21818;51.078;12.108;2023-05-10T05:30:02;18.20;65.90
35700;DHT22;21818;51.078;12.108;2023-05-10T05:32:28;18.10;66.00
35700;DHT22;21818;51.078;12.108;2023-05-10T05:34:53;18.20;66.10
35700;DHT22;21818;51.078;12.108;2023-05-10T05:37:20;18.20;66.10
35700;DHT22;21818;51.078;12.108;2023-05-10T05:39:46;18.10;66.00
35700;DHT22;21818;51.078;12.108;2023-05-10T05:42:13;18.30;66.00
35700;DHT22;21818;51.078;12.108;2023-05-10T05:44:40;18.30;65.60
35700;DHT22;21818;51.078;12.108;2023-05-10T05:47:05;18.40;65.50
35700;DHT22;21818;51.078;12.108;2023-05-10T05:49:31;18.40;65.40
35700;DHT22;21818;51.078;12.108;2023-05-10T05:52:01;18.50;65.20
35700;DHT22;21818;51.078;12.108;2023-05-10T05:54:27;18.60;65.10
35700;DHT22;21818;51.078;12.108;2023-05-10T05:57:00;18.50;65.00
35700;DHT22;21818;51.078;12.108;2023-05-10T05:59:26;18.50;65.00
35700;DHT22;21818;51.078;12.108;2023-05-10T06:01:52;18.50;64.90
35700;DHT22;21818;51.078;12.108;2023-05-10T06:04:18;18.50;64.80
35700;DHT22;21818;51.078;12.108;2023-05-10T06:06:44;18.50;65.00
35700;DHT22;21818;51.078;12.108;2023-05-10T06:09:10;18.50;64.90
35700;DHT22;21818;51.078;12.108;2023-05-10T06:11:36;18.60;64.70
35700;DHT22;21818;51.078;12.108;2023-05-10T06:14:03;18.70;64.60
35700;DHT22;21818;51.078;12.108;2023-05-10T06:16:35;18.80;64.50
35700;DHT22;21818;51.078;12.108;2023-05-10T06:19:00;18.80;64.40
35700;DHT22;21818;51.078;12.108;2023-05-10T06:21:26;18.80;64.20
35700;DHT22;21818;51.078;12.108;2023-05-10T06:23:51;18.70;64.30
35700;DHT22;21818;51.078;12.108;2023-05-10T06:26:17;18.70;64.20
35700;DHT22;21818;51.078;12.108;2023-05-10T06:28:42;18.70;64.30
35700;DHT22;21818;51.078;12.108;2023-05-10T06:31:08;18.60;64.40
35700;DHT22;21818;51.078;12.108;2023-05-10T06:33:34;18.60;64.40
35700;DHT22;21818;51.078;12.108;2023-05-10T06:35:59;18.70;64.50
35700;DHT22;21818;51.078;12.108;2023-05-10T06:38:25;18.70;64.50
35700;DHT22;21818;51.078;12.108;2023-05-10T06:40:51;18.70;64.60
35700;DHT22;21818;51.078;12.108;2023-05-10T06:43:17;18.70;64.70
35700;DHT22;21818;51.078;12.108;2023-05-10T06:45:43;18.70;64.60
35700;DHT22;21818;51.078;12.108;2023-05-10T06:48:08;18.80;64.50
35700;DHT22;21818;51.078;12.108;2023-05-10T06:50:34;18.80;64.40
35700;DHT22;21818;51.078;12.108;2023-05-10T06:53:00;18.80;64.40
35700;DHT22;21818;51.078;12.108;2023-05-10T06:55:27;18.80;64.90
35700;DHT22;21818;51.078;12.108;2023-05-10T06:57:53;18.80;65.60
35700;DHT22;21818;51.078;12.108;2023-05-10T07:00:19;18.80;66.80
35700;DHT22;21818;51.078;12.108;2023-05-10T07:02:45;18.80;66.50
35700;DHT22;21818;51.078;12.108;2023-05-10T07:05:11;18.80;66.60
35700;DHT22;21818;51.078;12.108;2023-05-10T07:07:37;18.80;66.80
35700;DHT22;21818;51.078;12.108;2023-05-10T07:10:03;18.80;66.80
35700;DHT22;21818;51.078;12.108;2023-05-10T07:12:29;18.90;67.20
35700;DHT22;21818;51.078;12.108;2023-05-10T07:14:55;18.90;67.60
35700;DHT22;21818;51.078;12.108;2023-05-10T07:17:20;18.90;67.50
35700;DHT22;21818;51.078;12.108;2023-05-10T07:19:46;18.90;67.60
35700;DHT22;21818;51.078;12.108;2023-05-10T07:22:11;18.90;67.60
35700;DHT22;21818;51.078;12.108;2023-05-10T07:24:37;18.90;67.60
35700;DHT22;21818;51.078;12.108;2023-05-10T07:27:03;18.80;67.70
35700;DHT22;21818;51.078;12.108;2023-05-10T07:29:29;18.70;67.90
35700;DHT22;21818;51.078;12.108;2023-05-10T07:31:55;18.70;68.10
35700;DHT22;21818;51.078;12.108;2023-05-10T07:34:21;18.80;68.00
35700;DHT22;21818;51.078;12.108;2023-05-10T07:36:47;18.70;68.00
35700;DHT22;21818;51.078;12.108;2023-05-10T07:39:13;18.70;68.10
35700;DHT22;21818;51.078;12.108;2023-05-10T07:41:38;18.80;68.10
35700;DHT22;21818;51.078;12.108;2023-05-10T07:44:05;18.70;68.10
35700;DHT22;21818;51.078;12.108;2023-05-10T07:46:31;18.70;68.20
35700;DHT22;21818;51.078;12.108;2023-05-10T07:48:56;18.70;68.40
35700;DHT22;21818;51.078;12.108;2023-05-10T07:51:22;18.70;68.40
35700;DHT22;21818;51.078;12.108;2023-05-10T07:53:47;18.70;68.30
35700;DHT22;21818;51.078;12.108;2023-05-10T07:58:50;18.60;68.70
35700;DHT22;21818;51.078;12.108;2023-05-10T08:01:16;18.60;68.60
35700;DHT22;21818;51.078;12.108;2023-05-10T08:03:41;18.70;68.80
35700;DHT22;21818;51.078;12.108;2023-05-10T08:06:07;18.70;68.70
35700;DHT22;21818;51.078;12.108;2023-05-10T08:08:33;18.70;68.80
35700;DHT22;21818;51.078;12.108;2023-05-10T08:10:58;18.70;68.80
35700;DHT22;21818;51.078;12.108;2023-05-10T08:13:24;18.70;68.80
35700;DHT22;21818;51.078;12.108;2023-05-10T08:15:49;18.70;68.90
35700;DHT22;21818;51.078;12.108;2023-05-10T08:18:18;18.70;68.80
35700;DHT22;21818;51.078;12.108;2023-05-10T08:20:43;18.70;68.90
35700;DHT22;21818;51.078;12.108;2023-05-10T08:23:09;18.70;69.10
35700;DHT22;21818;51.078;12.108;2023-05-10T08:25:35;18.70;69.00
35700;DHT22;21818;51.078;12.108;2023-05-10T08:28:00;18.70;69.00
35700;DHT22;21818;51.078;12.108;2023-05-10T08:30:26;18.70;69.20
35700;DHT22;21818;51.078;12.108;2023-05-10T08:32:51;18.70;69.20
35700;DHT22;21818;51.078;12.108;2023-05-10T08:35:17;18.70;69.20
35700;DHT22;21818;51.078;12.108;2023-05-10T08:37:42;18.70;69.20
35700;DHT22;21818;51.078;12.108;2023-05-10T08:40:08;18.70;69.40
35700;DHT22;21818;51.078;12.108;2023-05-10T08:42:40;18.70;69.40
35700;DHT22;21818;51.078;12.108;2023-05-10T08:45:07;18.70;69.90
35700;DHT22;21818;51.078;12.108;2023-05-10T08:47:33;18.70;69.50
35700;DHT22;21818;51.078;12.108;2023-05-10T08:50:00;18.70;69.70
35700;DHT22;21818;51.078;12.108;2023-05-10T08:52:26;18.70;69.90
35700;DHT22;21818;51.078;12.108;2023-05-10T08:54:53;18.70;70.00
35700;DHT22;21818;51.078;12.108;2023-05-10T08:57:19;18.70;70.40
35700;DHT22;21818;51.078;12.108;2023-05-10T08:59:45;18.60;70.80
35700;DHT22;21818;51.078;12.108;2023-05-10T09:02:11;18.60;70.80
35700;DHT22;21818;51.078;12.108;2023-05-10T09:04:38;18.60;71.50
35700;DHT22;21818;51.078;12.108;2023-05-10T09:07:04;18.60;70.90
35700;DHT22;21818;51.078;12.108;2023-05-10T09:09:30;18.60;71.10
35700;DHT22;21818;51.078;12.108;2023-05-10T09:11:56;18.70;71.10
35700;DHT22;21818;51.078;12.108;2023-05-10T09:14:23;18.70;70.90
35700;DHT22;21818;51.078;12.108;2023-05-10T09:16:50;18.70;70.90
35700;DHT22;21818;51.078;12.108;2023-05-10T09:19:15;18.80;71.10
35700;DHT22;21818;51.078;12.108;2023-05-10T09:21:41;18.80;71.40
35700;DHT22;21818;51.078;12.108;2023-05-10T09:24:08;18.70;71.30
35700;DHT22;21818;51.078;12.108;2023-05-10T09:26:34;18.70;71.40
35700;DHT22;21818;51.078;12.108;2023-05-10T09:29:01;18.80;71.50
35700;DHT22;21818;51.078;12.108;2023-05-10T09:32:01;18.70;71.50
35700;DHT22;21818;51.078;12.108;2023-05-10T09:34:31;18.80;71.70
35700;DHT22;21818;51.078;12.108;2023-05-10T09:36:59;18.80;71.70
35700;DHT22;21818;51.078;12.108;2023-05-10T09:39:36;18.90;71.70
35700;DHT22;21818;51.078;12.108;2023-05-10T09:42:07;18.90;71.70
35700;DHT22;21818;51.078;12.108;2023-05-10T09:44:33;19.00;72.30
35700;DHT22;21818;51.078;12.108;2023-05-10T09:47:00;19.00;71.80
35700;DHT22;21818;51.078;12.108;2023-05-10T09:49:26;19.10;71.80
35700;DHT22;21818;51.078;12.108;2023-05-10T09:52:03;19.10;71.70
35700;DHT22;21818;51.078;12.108;2023-05-10T09:54:29;19.10;71.90
35700;DHT22;21818;51.078;12.108;2023-05-10T09:56:55;19.10;71.80
35700;DHT22;21818;51.078;12.108;2023-05-10T09:59:20;19.10;72.00
35700;DHT22;21818;51.078;12.108;2023-05-10T10:01:50;19.10;72.10
35700;DHT22;21818;51.078;12.108;2023-05-10T10:04:17;19.20;72.20
35700;DHT22;21818;51.078;12.108;2023-05-10T10:06:42;19.20;72.10
35700;DHT22;21818;51.078;12.108;2023-05-10T10:09:09;19.20;72.20
35700;DHT22;21818;51.078;12.108;2023-05-10T10:11:38;19.20;72.30
35700;DHT22;21818;51.078;12.108;2023-05-10T10:14:04;19.20;72.50
35700;DHT22;21818;51.078;12.108;2023-05-10T10:16:31;19.20;72.70
35700;DHT22;21818;51.078;12.108;2023-05-10T10:18:57;19.20;72.70
35700;DHT22;21818;51.078;12.108;2023-05-10T10:21:24;19.20;72.80
35700;DHT22;21818;51.078;12.108;2023-05-10T10:23:50;19.30;73.10
35700;DHT22;21818;51.078;12.108;2023-05-10T10:26:16;19.20;73.30
35700;DHT22;21818;51.078;12.108;2023-05-10T10:34:38;19.20;74.00
35700;DHT22;21818;51.078;12.108;2023-05-10T10:37:05;19.20;73.70
35700;DHT22;21818;51.078;12.108;2023-05-10T10:39:32;19.20;74.10
35700;DHT22;21818;51.078;12.108;2023-05-10T10:41:58;19.20;74.30
35700;DHT22;21818;51.078;12.108;2023-05-10T10:47:21;19.20;74.60
35700;DHT22;21818;51.078;12.108;2023-05-10T10:50:04;19.30;74.70
35700;DHT22;21818;51.078;12.108;2023-05-10T10:52:35;19.30;74.70
35700;DHT22;21818;51.078;12.108;2023-05-10T10:55:02;19.30;74.80
35700;DHT22;21818;51.078;12.108;2023-05-10T10:57:32;19.30;74.70
35700;DHT22;21818;51.078;12.108;2023-05-10T11:00:26;19.40;74.80
35700;DHT22;21818;51.078;12.108;2023-05-10T11:02:59;19.40;75.30
35700;DHT22;21818;51.078;12.108;2023-05-10T11:05:46;19.40;75.10
35700;DHT22;21818;51.078;12.108;2023-05-10T11:10:49;19.50;75.00
35700;DHT22;21818;51.078;12.108;2023-05-10T11:15:59;19.50;75.10
35700;DHT22;21818;51.078;12.108;2023-05-10T11:18:29;19.50;75.30
35700;DHT22;21818;51.078;12.108;2023-05-10T11:21:00;19.50;75.50
35700;DHT22;21818;51.078;12.108;2023-05-10T11:23:32;19.50;75.60
35700;DHT22;21818;51.078;12.108;2023-05-10T11:26:00;19.50;75.70
35700;DHT22;21818;51.078;12.108;2023-05-10T11:28:27;19.60;75.60
35700;DHT22;21818;51.078;12.108;2023-05-10T11:30:54;19.60;75.60
35700;DHT22;21818;51.078;12.108;2023-05-10T11:33:20;19.60;75.60
35700;DHT22;21818;51.078;12.108;2023-05-10T11:35:46;19.60;75.80
35700;DHT22;21818;51.078;12.108;2023-05-10T11:38:12;19.60;75.70
35700;DHT22;21818;51.078;12.108;2023-05-10T11:40:39;19.60;75.60
35700;DHT22;21818;51.078;12.108;2023-05-10T11:43:05;19.60;76.00
35700;DHT22;21818;51.078;12.108;2023-05-10T11:45:34;19.60;76.30
35700;DHT22;21818;51.078;12.108;2023-05-10T11:48:01;19.60;76.20
35700;DHT22;21818;51.078;12.108;2023-05-10T11:50:27;19.60;76.30
35700;DHT22;21818;51.078;12.108;2023-05-10T11:52:54;19.60;76.40
35700;DHT22;21818;51.078;12.108;2023-05-10T11:55:20;19.60;76.70
35700;DHT22;21818;51.078;12.108;2023-05-10T11:57:46;19.60;76.60
35700;DHT22;21818;51.078;12.108;2023-05-10T12:00:12;19.70;76.60
35700;DHT22;21818;51.078;12.108;2023-05-10T12:02:38;19.70;76.90
35700;DHT22;21818;51.078;12.108;2023-05-10T12:05:05;19.70;76.80
35700;DHT22;21818;51.078;12.108;2023-05-10T12:07:31;19.70;76.80
35700;DHT22;21818;51.078;12.108;2023-05-10T12:10:04;19.70;76.60
35700;DHT22;21818;51.078;12.108;2023-05-10T12:12:44;19.80;76.80
35700;DHT22;21818;51.078;12.108;2023-05-10T12:15:12;19.80;77.00
35700;DHT22;21818;51.078;12.108;2023-05-10T12:17:39;19.80;76.80
35700;DHT22;21818;51.078;12.108;2023-05-10T12:20:19;19.80;76.70
35700;DHT22;21818;51.078;12.108;2023-05-10T12:22:56;19.80;76.90
35700;DHT22;21818;51.078;12.108;2023-05-10T12:25:22;19.90;76.90
35700;DHT22;21818;51.078;12.108;2023-05-10T12:27:51;19.90;76.80
35700;DHT22;21818;51.078;12.108;2023-05-10T12:30:24;19.90;77.00
35700;DHT22;21818;51.078;12.108;2023-05-10T12:32:50;19.80;77.20
35700;DHT22;21818;51.078;12.108;2023-05-10T12:35:16;19.80;77.20
35700;DHT22;21818;51.078;12.108;2023-05-10T12:37:43;19.80;77.20
35700;DHT22;21818;51.078;12.108;2023-05-10T12:40:09;19.80;77.20
35700;DHT22;21818;51.078;12.108;2023-05-10T12:42:37;19.70;77.70
35700;DHT22;21818;51.078;12.108;2023-05-10T12:45:04;19.70;77.80
35700;DHT22;21818;51.078;12.108;2023-05-10T12:47:31;19.60;77.90
35700;DHT22;21818;51.078;12.108;2023-05-10T12:49:56;19.60;78.00
35700;DHT22;21818;51.078;12.108;2023-05-10T12:52:22;19.50;77.70
35700;DHT22;21818;51.078;12.108;2023-05-10T12:54:48;19.40;77.70
35700;DHT22;21818;51.078;12.108;2023-05-10T12:57:14;19.40;77.70
35700;DHT22;21818;51.078;12.108;2023-05-10T12:59:40;19.30;77.80
35700;DHT22;21818;51.078;12.108;2023-05-10T13:02:06;19.30;78.00
35700;DHT22;21818;51.078;12.108;2023-05-10T13:04:32;19.20;78.10
35700;DHT22;21818;51.078;12.108;2023-05-10T13:06:57;19.10;78.30
35700;DHT22;21818;51.078;12.108;2023-05-10T13:09:25;19.10;78.50
35700;DHT22;21818;51.078;12.108;2023-05-10T13:11:51;19.00;78.70
35700;DHT22;21818;51.078;12.108;2023-05-10T13:14:18;19.00;78.90
35700;DHT22;21818;51.078;12.108;2023-05-10T13:16:46;18.90;79.20
35700;DHT22;21818;51.078;12.108;2023-05-10T13:19:12;18.90;79.60
35700;DHT22;21818;51.078;12.108;2023-05-10T13:21:37;18.90;79.60
35700;DHT22;21818;51.078;12.108;2023-05-10T13:24:03;18.80;79.80
35700;DHT22;21818;51.078;12.108;2023-05-10T13:26:29;18.80;80.10
35700;DHT22;21818;51.078;12.108;2023-05-10T13:28:54;18.70;80.40
35700;DHT22;21818;51.078;12.108;2023-05-10T13:31:21;18.70;80.70
35700;DHT22;21818;51.078;12.108;2023-05-10T13:33:46;18.70;80.80
35700;DHT22;21818;51.078;12.108;2023-05-10T13:36:12;18.70;81.10
35700;DHT22;21818;51.078;12.108;2023-05-10T13:38:37;18.70;81.50
35700;DHT22;21818;51.078;12.108;2023-05-10T13:41:03;18.70;81.70
35700;DHT22;21818;51.078;12.108;2023-05-10T13:43:29;18.70;81.90
35700;DHT22;21818;51.078;12.108;2023-05-10T13:45:55;18.70;81.90
35700;DHT22;21818;51.078;12.108;2023-05-10T13:48:20;18.70;82.00
35700;DHT22;21818;51.078;12.108;2023-05-10T13:50:46;18.70;82.10
35700;DHT22;21818;51.078;12.108;2023-05-10T13:53:12;18.70;82.30
35700;DHT22;21818;51.078;12.108;2023-05-10T13:55:38;18.70;82.20
35700;DHT22;21818;51.078;12.108;2023-05-10T13:58:03;18.70;82.30
35700;DHT22;21818;51.078;12.108;2023-05-10T14:00:29;18.70;82.50
35700;DHT22;21818;51.078;12.108;2023-05-10T14:02:54;18.70;82.60
35700;DHT22;21818;51.078;12.108;2023-05-10T14:05:20;18.70;82.50
35700;DHT22;21818;51.078;12.108;2023-05-10T14:07:46;18.80;82.50
35700;DHT22;21818;51.078;12.108;2023-05-10T14:10:11;18.80;82.50
35700;DHT22;21818;51.078;12.108;2023-05-10T14:12:37;18.70;82.20
35700;DHT22;21818;51.078;12.108;2023-05-10T14:15:03;18.70;82.40
35700;DHT22;21818;51.078;12.108;2023-05-10T14:17:31;18.70;82.40
35700;DHT22;21818;51.078;12.108;2023-05-10T14:19:57;18.70;82.70
35700;DHT22;21818;51.078;12.108;2023-05-10T14:22:22;18.70;82.70
35700;DHT22;21818;51.078;12.108;2023-05-10T14:24:48;18.70;82.80
35700;DHT22;21818;51.078;12.108;2023-05-10T14:27:14;18.80;82.80
35700;DHT22;21818;51.078;12.108;2023-05-10T14:29:40;18.70;82.90
35700;DHT22;21818;51.078;12.108;2023-05-10T14:32:06;18.70;82.90
35700;DHT22;21818;51.078;12.108;2023-05-10T14:34:31;18.80;82.70
35700;DHT22;21818;51.078;12.108;2023-05-10T14:36:57;18.80;82.50
35700;DHT22;21818;51.078;12.108;2023-05-10T14:39:23;18.80;82.80
35700;DHT22;21818;51.078;12.108;2023-05-10T14:41:49;18.80;82.80
35700;DHT22;21818;51.078;12.108;2023-05-10T14:44:16;18.80;82.90
35700;DHT22;21818;51.078;12.108;2023-05-10T14:46:42;18.80;82.60
35700;DHT22;21818;51.078;12.108;2023-05-10T14:49:07;18.80;82.60
35700;DHT22;21818;51.078;12.108;2023-05-10T14:51:33;18.80;82.80
35700;DHT22;21818;51.078;12.108;2023-05-10T14:53:58;18.70;82.90
35700;DHT22;21818;51.078;12.108;2023-05-10T14:56:24;18.80;83.00
35700;DHT22;21818;51.078;12.108;2023-05-10T14:58:51;18.80;83.00
35700;DHT22;21818;51.078;12.108;2023-05-10T15:01:16;18.80;83.00
35700;DHT22;21818;51.078;12.108;2023-05-10T15:03:42;18.80;83.00
35700;DHT22;21818;51.078;12.108;2023-05-10T15:06:08;18.80;82.70
35700;DHT22;21818;51.078;12.108;2023-05-10T15:08:34;18.80;82.60
35700;DHT22;21818;51.078;12.108;2023-05-10T15:10:59;18.80;82.70
35700;DHT22;21818;51.078;12.108;2023-05-10T15:13:25;18.80;82.80
35700;DHT22;21818;51.078;12.108;2023-05-10T15:15:50;18.80;82.90
35700;DHT22;21818;51.078;12.108;2023-05-10T15:18:16;18.80;83.00
35700;DHT22;21818;51.078;12.108;2023-05-10T15:20:41;18.80;83.00
35700;DHT22;21818;51.078;12.108;2023-05-10T15:23:07;18.80;83.00
35700;DHT22;21818;51.078;12.108;2023-05-10T15:25:33;18.80;82.90
35700;DHT22;21818;51.078;12.108;2023-05-10T15:28:03;18.90;82.80
35700;DHT22;21818;51.078;12.108;2023-05-10T15:30:29;18.90;82.80
35700;DHT22;21818;51.078;12.108;2023-05-10T15:32:55;18.80;82.90
35700;DHT22;21818;51.078;12.108;2023-05-10T15:35:20;18.80;82.90
35700;DHT22;21818;51.078;12.108;2023-05-10T15:37:48;18.80;83.00
35700;DHT22;21818;51.078;12.108;2023-05-10T15:40:14;18.80;83.00
35700;DHT22;21818;51.078;12.108;2023-05-10T15:42:40;18.80;82.80
35700;DHT22;21818;51.078;12.108;2023-05-10T15:45:06;18.80;82.80
35700;DHT22;21818;51.078;12.108;2023-05-10T15:47:32;18.80;82.80
35700;DHT22;21818;51.078;12.108;2023-05-10T15:49:58;18.80;82.70